createdAt,value
2023-02-08T00:22:00.398Z,13.55
2023-02-08T00:24:03.576Z,12.95
2023-02-08T00:26:07.519Z,12.80
2023-02-08T00:28:14.301Z,13.85
2023-02-08T00:30:17.773Z,15.07
2023-02-08T00:32:20.964Z,14.20
2023-02-08T00:34:24.142Z,13.02
2023-02-08T00:36:27.333Z,13.63
2023-02-08T00:38:32.550Z,14.18
2023-02-08T00:40:35.712Z,13.18
2023-02-08T00:42:38.909Z,13.10
2023-02-08T00:44:42.008Z,14.10
2023-02-08T00:46:45.215Z,13.02
2023-02-08T00:48:48.380Z,13.95
2023-02-08T00:51:02.350Z,13.05
2023-02-08T00:53:05.533Z,14.05
2023-02-08T00:55:10.917Z,14.15
2023-02-08T00:57:14.373Z,14.15
2023-02-08T00:59:17.564Z,13.80
2023-02-08T01:01:20.853Z,13.30
2023-02-08T01:03:25.499Z,13.80
2023-02-08T01:05:28.790Z,13.30
2023-02-08T01:07:32.043Z,13.85
2023-02-08T01:09:36.043Z,15.63
2023-02-08T01:11:40.666Z,14.48
2023-02-08T01:13:43.819Z,13.43
2023-02-08T01:15:47.092Z,12.73
2023-02-08T01:17:55.354Z,12.63
2023-02-08T01:19:58.704Z,13.48
2023-02-08T01:22:02.145Z,13.13
2023-02-08T01:24:05.970Z,14.30
2023-02-08T01:26:10.798Z,13.57
2023-02-08T01:28:15.484Z,12.55
2023-02-08T01:30:19.111Z,12.20
2023-02-08T01:32:22.431Z,12.90
2023-02-08T01:34:25.598Z,12.02
2023-02-08T01:36:30.851Z,11.90
2023-02-08T01:38:34.220Z,13.43
2023-02-08T01:40:37.778Z,12.02
2023-02-08T01:42:41.110Z,12.20
2023-02-08T01:45:20.880Z,11.18
2023-02-08T01:47:25.701Z,13.40
2023-02-08T01:49:31.149Z,12.52
2023-02-08T01:51:38.562Z,12.55
2023-02-08T01:53:42.718Z,13.32
2023-02-08T01:55:54.012Z,12.00
2023-02-08T01:58:01.946Z,12.70
2023-02-08T02:00:10.545Z,12.13
2023-02-08T02:02:18.006Z,11.15
2023-02-08T02:04:23.571Z,12.93
2023-02-08T02:06:32.306Z,11.10
2023-02-08T02:08:35.780Z,12.50
2023-02-08T02:10:40.819Z,11.85
2023-02-08T02:12:44.918Z,12.55
2023-02-08T02:14:48.886Z,14.93
2023-02-08T02:16:52.126Z,13.48
2023-02-08T02:18:55.485Z,13.25
2023-02-08T02:21:26.417Z,12.20
2023-02-08T02:23:49.536Z,11.90
2023-02-08T02:26:34.304Z,13.52
2023-02-08T02:29:09.984Z,13.25
2023-02-08T02:31:40.685Z,14.02
2023-02-08T02:33:59.878Z,11.48
2023-02-08T02:36:10.619Z,12.30
2023-02-08T02:38:20.897Z,14.05
2023-02-08T02:40:30.856Z,11.30
2023-02-08T02:43:04.575Z,10.15
2023-02-08T02:45:16.239Z,9.10
2023-02-08T02:47:29.318Z,8.48
2023-02-08T02:49:40.367Z,10.57
2023-02-08T02:51:50.504Z,10.95
2023-02-08T02:53:58.985Z,9.32
2023-02-08T02:56:08.323Z,8.90
2023-02-08T02:58:13.628Z,7.82
2023-02-08T03:00:22.998Z,8.32
2023-02-08T03:02:28.534Z,9.80
2023-02-08T03:05:01.969Z,9.15
2023-02-08T03:07:13.734Z,7.53
2023-02-08T03:09:37.330Z,9.13
2023-02-08T03:11:46.931Z,7.25
2023-02-08T03:14:16.976Z,9.10
2023-02-08T03:16:27.609Z,7.68
2023-02-08T03:18:38.620Z,7.65
2023-02-08T03:20:46.852Z,8.55
2023-02-08T03:22:59.894Z,9.30
2023-02-08T03:25:08.646Z,8.73
2023-02-08T03:27:16.609Z,11.02
2023-02-08T03:29:29.627Z,7.80
2023-02-08T03:31:40.881Z,10.60
2023-02-08T03:33:52.529Z,10.70
2023-02-08T03:35:59.989Z,8.70
2023-02-08T03:38:06.906Z,9.18
2023-02-08T03:40:17.228Z,8.82
2023-02-08T03:42:26.134Z,8.68
2023-02-08T03:44:34.835Z,8.10
2023-02-08T03:46:40.799Z,9.88
2023-02-08T03:48:50.590Z,9.88
2023-02-08T03:50:57.245Z,7.70
2023-02-08T03:53:00.654Z,8.82
2023-02-08T03:55:08.543Z,8.43
2023-02-08T03:57:17.678Z,8.05
2023-02-08T03:59:25.666Z,7.13
2023-02-08T04:01:33.377Z,7.90
2023-02-08T04:03:37.924Z,8.43
2023-02-08T04:05:42.847Z,9.90
2023-02-08T04:07:46.161Z,10.50
2023-02-08T04:09:49.600Z,8.68
2023-02-08T04:11:52.946Z,8.13
2023-02-08T04:13:56.131Z,7.85
2023-02-08T04:15:59.785Z,8.40
2023-02-08T04:18:03.345Z,9.70
2023-02-08T04:20:07.358Z,8.65
2023-02-08T04:22:12.024Z,7.47
2023-02-08T04:24:15.323Z,7.10
2023-02-08T04:26:18.638Z,7.80
2023-02-08T04:28:21.966Z,7.75
2023-02-08T04:30:25.226Z,8.45
2023-02-08T04:32:28.547Z,7.97
2023-02-08T04:34:31.896Z,8.30
2023-02-08T04:36:35.111Z,7.25
2023-02-08T04:38:39.763Z,6.70
2023-02-08T04:40:43.238Z,7.82
2023-02-08T04:42:46.596Z,7.57
2023-02-08T04:44:50.118Z,8.07
2023-02-08T04:46:53.417Z,5.88
2023-02-08T04:48:58.885Z,7.38
2023-02-08T04:51:02.392Z,5.93
2023-02-08T04:53:06.463Z,6.25
2023-02-08T04:55:11.228Z,6.43
2023-02-08T04:57:15.057Z,6.40
2023-02-08T04:59:18.518Z,5.70
2023-02-08T05:01:22.126Z,7.85
2023-02-08T05:03:25.342Z,7.95
2023-02-08T05:05:29.077Z,7.40
2023-02-08T05:07:32.496Z,8.35
2023-02-08T05:09:35.813Z,6.88
2023-02-08T05:11:40.496Z,7.18
2023-02-08T05:13:43.743Z,6.32
2023-02-08T05:15:47.054Z,7.78
2023-02-08T05:17:50.272Z,5.97
2023-02-08T05:19:53.560Z,6.78
2023-02-08T05:21:56.794Z,8.77
2023-02-08T05:24:00.141Z,6.78
2023-02-08T05:26:07.948Z,7.50
2023-02-08T05:28:12.541Z,8.07
2023-02-08T05:30:15.882Z,8.82
2023-02-08T05:32:19.145Z,7.60
2023-02-08T05:34:22.415Z,8.10
2023-02-08T05:36:26.096Z,9.25
2023-02-08T05:38:29.239Z,8.60
2023-02-08T05:40:32.728Z,8.20
2023-02-08T05:42:35.950Z,8.00
2023-02-08T05:44:41.207Z,6.63
2023-02-08T05:46:44.528Z,6.55
2023-02-08T05:48:48.226Z,6.97
2023-02-08T05:50:51.440Z,7.43
2023-02-08T05:52:54.727Z,6.03
2023-02-08T05:54:57.916Z,8.13
2023-02-08T05:57:01.159Z,6.82
2023-02-08T05:59:05.213Z,7.65
2023-02-08T06:01:14.589Z,7.20
2023-02-08T06:03:17.741Z,8.05
2023-02-08T06:05:21.024Z,8.00
2023-02-08T06:07:24.429Z,8.23
2023-02-08T06:09:27.646Z,10.45
2023-02-08T06:11:30.898Z,8.38
2023-02-08T06:13:34.128Z,9.13
2023-02-08T06:15:37.333Z,8.00
2023-02-08T06:17:42.110Z,6.45
2023-02-08T06:19:45.281Z,6.53
2023-02-08T06:21:48.436Z,8.20
2023-02-08T06:23:52.886Z,6.47
2023-02-08T06:25:56.166Z,5.90
2023-02-08T06:27:59.385Z,5.35
2023-02-08T06:30:02.701Z,7.15
2023-02-08T06:32:06.335Z,4.97
2023-02-08T06:34:11.086Z,6.30
2023-02-08T06:36:14.423Z,5.55
2023-02-08T06:38:18.095Z,4.40
2023-02-08T06:40:21.644Z,5.70
2023-02-08T06:42:26.466Z,4.88
2023-02-08T06:44:29.617Z,6.22
2023-02-08T06:46:32.890Z,4.90
2023-02-08T06:48:36.388Z,4.68
2023-02-08T06:50:41.763Z,6.55
2023-02-08T06:52:45.329Z,9.32
2023-02-08T06:54:48.653Z,9.38
2023-02-08T06:56:54.408Z,9.88
2023-02-08T06:58:58.168Z,5.22
2023-02-08T07:01:01.418Z,6.47
2023-02-08T07:03:04.790Z,4.63
2023-02-08T07:05:08.881Z,6.05
2023-02-08T07:07:13.733Z,6.50
2023-02-08T07:09:17.504Z,5.18
2023-02-08T07:11:22.402Z,5.68
2023-02-08T07:13:25.779Z,5.10
2023-02-08T07:15:30.902Z,7.28
2023-02-08T07:17:34.297Z,8.73
2023-02-08T07:19:37.682Z,8.18
2023-02-08T07:21:40.916Z,10.50
2023-02-08T07:23:45.945Z,8.40
2023-02-08T07:25:58.840Z,6.90
2023-02-08T07:28:02.788Z,8.15
2023-02-08T07:30:08.275Z,8.35
2023-02-08T07:32:11.882Z,8.10
2023-02-08T07:34:17.016Z,6.80
2023-02-08T12:57:05.623Z,5.72
2023-02-08T12:59:19.465Z,5.80
2023-02-08T13:01:25.722Z,5.20
2023-02-08T13:03:46.822Z,6.38
2023-02-08T13:06:01.761Z,6.10
2023-02-08T13:08:14.555Z,4.53
2023-02-08T13:10:27.100Z,5.43
2023-02-08T13:13:08.145Z,5.13
2023-02-08T13:15:30.237Z,5.35
2023-02-08T13:17:43.671Z,5.53
2023-02-08T13:20:00.502Z,4.90
2023-02-08T13:22:06.974Z,5.07
2023-02-08T13:24:19.915Z,5.03
2023-02-08T13:26:26.803Z,4.65
2023-02-08T13:28:31.684Z,6.05
2023-02-08T13:30:39.601Z,5.50
2023-02-08T13:32:47.138Z,6.22
2023-02-08T13:34:54.234Z,5.68
2023-02-08T15:10:19.924Z,6.05
2023-02-08T15:12:27.684Z,5.97
2023-02-08T15:14:32.737Z,6.00
2023-02-08T15:16:40.986Z,7.20
2023-02-08T15:18:47.920Z,6.15
2023-02-08T15:21:03.317Z,7.25
2023-02-08T15:23:08.537Z,5.70
2023-02-08T15:25:27.794Z,6.25
2023-02-08T15:27:33.479Z,5.50
2023-02-08T15:29:45.679Z,6.28
2023-02-08T15:31:50.134Z,6.47
2023-02-08T15:37:45.797Z,5.78
2023-02-08T15:39:52.769Z,5.43
2023-02-08T15:42:00.123Z,6.55
2023-02-08T15:44:14.784Z,7.50
2023-02-08T15:46:22.176Z,8.00
2023-02-08T15:48:26.284Z,10.00
2023-02-08T15:50:32.975Z,9.85
2023-02-08T15:52:38.392Z,9.43
2023-02-08T15:54:41.934Z,10.68
2023-02-08T15:56:51.080Z,9.45
2023-02-08T15:58:58.753Z,8.18
2023-02-08T16:01:04.934Z,6.10
2023-02-08T16:03:16.656Z,6.40
2023-02-08T16:05:23.659Z,6.80
2023-02-08T16:07:30.717Z,6.35
2023-02-08T16:09:34.228Z,6.70
2023-02-08T16:11:38.221Z,6.22
2023-02-08T16:13:47.609Z,5.15
2023-02-08T16:16:03.746Z,6.75
2023-02-08T16:18:34.940Z,6.10
2023-02-08T16:20:38.604Z,7.43
2023-02-08T16:22:42.016Z,6.28
2023-02-08T16:24:47.015Z,6.93
2023-02-08T16:26:59.902Z,10.60
2023-02-08T16:29:05.895Z,9.20
2023-02-08T16:31:11.588Z,7.38
2023-02-08T16:33:15.072Z,6.88
2023-02-08T16:35:24.764Z,8.13
2023-02-08T16:37:31.148Z,6.78
2023-02-08T16:39:42.532Z,8.45
2023-02-08T16:42:15.997Z,8.02
2023-02-08T16:44:26.186Z,8.35
2023-02-08T16:46:31.044Z,7.40
2023-02-08T16:48:36.194Z,8.57
2023-02-08T16:50:40.014Z,8.20
2023-02-08T16:52:43.712Z,8.52
2023-02-08T16:54:47.235Z,8.07
2023-02-08T16:56:55.803Z,8.00
2023-02-08T16:58:59.071Z,8.80
2023-02-08T17:01:02.862Z,8.65
2023-02-08T17:03:07.807Z,8.30
2023-02-08T17:05:11.420Z,9.70
2023-02-08T17:07:19.394Z,9.35
2023-02-08T17:09:23.002Z,9.32
2023-02-08T17:11:26.859Z,8.88
2023-02-08T17:13:30.236Z,9.57
2023-02-08T17:15:33.551Z,11.25
2023-02-08T17:17:37.007Z,9.75
2023-02-08T17:19:41.869Z,10.30
2023-02-08T17:21:45.359Z,9.50
2023-02-08T17:23:48.949Z,9.90
2023-02-08T17:25:52.854Z,10.38
2023-02-08T17:27:58.503Z,11.20
2023-02-08T17:30:01.868Z,10.05
2023-02-08T17:32:05.493Z,10.02
2023-02-08T17:34:08.997Z,10.80
2023-02-08T17:36:15.431Z,9.32
2023-02-08T17:38:19.954Z,10.35
2023-02-08T17:40:27.035Z,11.50
2023-02-08T17:42:32.667Z,12.88
2023-02-08T18:29:43.201Z,8.48
2023-02-08T18:31:46.555Z,9.63
2023-02-08T18:33:51.031Z,9.20
2023-02-08T18:35:54.335Z,9.82
2023-02-08T18:37:57.698Z,10.50
2023-02-08T18:40:01.357Z,9.15
2023-02-08T18:42:04.780Z,9.38
2023-02-08T18:44:08.299Z,10.27
2023-02-08T18:46:15.259Z,9.77
2023-02-08T18:48:18.658Z,10.10
2023-02-08T18:50:22.039Z,9.00
2023-02-08T18:52:25.640Z,9.50
2023-02-08T18:54:29.551Z,8.77
2023-02-08T18:56:33.874Z,9.77
2023-02-08T18:58:37.665Z,9.23
2023-02-08T19:00:41.462Z,9.65
2023-02-08T19:02:47.203Z,9.02
2023-02-08T19:04:50.904Z,9.07
2023-02-08T19:06:54.494Z,9.23
2023-02-08T19:09:01.670Z,8.60
2023-02-08T19:11:06.025Z,7.70
2023-02-08T19:13:09.380Z,9.15
2023-02-08T19:15:13.091Z,8.68
2023-02-08T19:17:16.374Z,8.25
2023-02-08T19:19:21.442Z,8.05
2023-02-08T19:21:25.324Z,8.07
2023-02-08T19:23:28.537Z,9.52
2023-02-08T19:25:31.940Z,8.13
2023-02-08T19:27:35.287Z,9.10
2023-02-08T19:29:38.559Z,9.15
2023-02-08T19:31:42.891Z,9.40
2023-02-08T19:33:48.702Z,9.30
2023-02-08T19:35:53.416Z,8.77
2023-02-08T19:37:56.931Z,8.43
2023-02-08T19:40:00.609Z,10.10
2023-02-08T19:42:03.949Z,10.30
2023-02-08T19:44:09.103Z,10.52
2023-02-08T19:46:13.284Z,10.73
2023-02-08T19:48:16.624Z,10.98
2023-02-08T19:50:20.014Z,12.65
2023-02-08T19:52:24.701Z,11.50
2023-02-08T19:54:28.153Z,12.25
2023-02-08T19:56:34.148Z,15.50
2023-02-08T19:58:38.023Z,12.30
2023-02-08T20:00:41.341Z,11.27
2023-02-08T20:02:44.706Z,12.88
2023-02-08T20:04:48.142Z,11.15
2023-02-08T20:06:53.261Z,11.32
2023-02-08T20:08:58.170Z,10.13
2023-02-08T20:11:01.480Z,9.77
2023-02-08T20:13:04.844Z,11.20
2023-02-08T20:15:09.026Z,10.00
2023-02-08T20:17:12.293Z,12.50
2023-02-08T20:19:15.761Z,10.63
2023-02-08T20:21:20.299Z,11.30
2023-02-08T20:23:23.843Z,10.65
2023-02-08T20:25:29.185Z,11.18
2023-02-08T20:27:32.883Z,10.85
2023-02-08T20:29:36.592Z,11.73
2023-02-08T20:31:42.740Z,11.25
2023-02-08T20:33:46.883Z,11.98
2023-02-08T20:35:50.223Z,12.32
2023-02-08T20:37:53.429Z,10.43
2023-02-08T20:39:56.757Z,12.45
2023-02-08T20:42:01.680Z,11.13
2023-02-08T20:44:05.353Z,12.13
2023-02-08T20:46:10.853Z,12.70
2023-02-08T20:48:14.271Z,13.05
2023-02-08T20:50:19.596Z,13.38
2023-02-08T20:52:24.278Z,25.90
2023-02-08T20:54:27.747Z,28.70
2023-02-08T20:56:34.410Z,27.75
2023-02-08T20:58:39.960Z,23.10
2023-02-08T21:00:45.589Z,22.23
2023-02-08T21:02:49.771Z,19.17
2023-02-08T21:04:53.068Z,15.93
2023-02-08T21:06:56.504Z,14.00
2023-02-08T21:09:01.308Z,12.60
2023-02-08T21:11:04.694Z,12.20
2023-02-08T21:13:08.005Z,15.20
2023-02-08T21:15:13.225Z,19.42
2023-02-08T21:17:16.623Z,12.82
2023-02-08T21:19:21.144Z,11.80
2023-02-08T21:21:24.788Z,11.05
2023-02-08T21:23:28.375Z,12.45
2023-02-08T21:25:31.645Z,12.20
2023-02-08T21:27:35.063Z,12.10
2023-02-08T21:29:38.402Z,11.63
2023-02-08T21:31:43.381Z,10.63
2023-02-08T21:33:47.087Z,11.50
2023-02-08T21:35:50.316Z,12.23
2023-02-08T21:37:53.676Z,12.00
2023-02-08T21:39:57.001Z,10.98
2023-02-08T21:42:00.336Z,9.93
2023-02-08T21:44:04.590Z,10.80
2023-02-08T21:46:08.997Z,12.00
2023-02-08T21:48:14.329Z,9.40
2023-02-08T21:50:34.536Z,9.90
2023-02-08T21:52:55.316Z,9.63
2023-02-08T21:54:58.757Z,10.05
2023-02-08T21:57:03.769Z,11.30
2023-02-08T21:59:07.017Z,11.02
2023-02-08T22:01:10.726Z,11.63
2023-02-08T22:03:16.464Z,11.13
2023-02-08T22:05:37.708Z,10.95
2023-02-08T22:07:45.709Z,10.38
2023-02-08T22:09:49.606Z,10.88
2023-02-08T22:11:54.033Z,12.07
2023-02-08T22:13:57.281Z,11.13
2023-02-08T22:16:02.565Z,11.70
2023-02-08T22:18:06.935Z,11.02
2023-02-08T22:20:13.212Z,15.05
2023-02-08T22:22:16.660Z,14.88
2023-02-08T22:24:20.024Z,11.68
2023-02-08T22:26:23.714Z,11.55
2023-02-08T22:28:27.380Z,12.38
2023-02-08T22:30:30.734Z,10.55
2023-02-08T22:32:34.661Z,10.73
2023-02-08T22:34:38.974Z,9.70
2023-02-08T22:36:43.845Z,10.15
2023-02-08T22:38:47.388Z,9.80
2023-02-08T22:40:50.827Z,8.88
2023-02-08T22:42:54.232Z,8.40
2023-02-08T22:44:57.683Z,10.25
2023-02-08T22:47:02.352Z,9.50
2023-02-08T22:49:05.759Z,8.27
2023-02-08T22:51:10.742Z,8.57
2023-02-08T22:53:15.520Z,7.72
2023-02-08T22:55:18.801Z,7.20
2023-02-08T22:57:22.402Z,7.00
2023-02-08T22:59:25.776Z,8.15
2023-02-08T23:01:29.431Z,10.27
2023-02-08T23:03:33.585Z,7.78
2023-02-08T23:05:40.924Z,9.10
2023-02-08T23:07:44.366Z,10.35
2023-02-08T23:09:49.050Z,9.60
2023-02-08T23:11:52.682Z,9.30
2023-02-08T23:13:56.114Z,8.50
2023-02-08T23:16:00.234Z,9.15
2023-02-08T23:18:03.710Z,7.75
2023-02-08T23:20:07.618Z,8.90
2023-02-08T23:22:10.944Z,10.30
2023-02-08T23:24:14.365Z,8.50
2023-02-08T23:26:21.720Z,7.95
2023-02-08T23:28:25.125Z,8.77
2023-02-08T23:30:28.499Z,9.30
2023-02-08T23:32:31.956Z,7.93
2023-02-08T23:34:36.228Z,7.07
2023-02-08T23:36:40.564Z,8.00
2023-02-08T23:38:44.571Z,7.90
2023-02-08T23:40:47.856Z,9.27
2023-02-08T23:42:52.737Z,8.90
2023-02-08T23:44:56.661Z,8.80
2023-02-08T23:46:59.970Z,7.22
2023-02-08T23:49:03.481Z,8.80
2023-02-08T23:51:08.268Z,7.43
2023-02-08T23:53:11.666Z,7.05
2023-02-08T23:55:15.066Z,8.95
2023-02-08T23:57:18.496Z,8.40
2023-02-08T23:59:23.188Z,9.05
